Avon, Illinois
Current Conditions -  °F | °C
As of 7:35 PM on Wednesday 26 Nov 2014 (Local Time) from KMQB Reporting Station
Light Snow Light Snow  
Wind Chill: 20°   Ceiling: 500
Heat Index: 29°   Visibility: 4mi
Dew Point: 28°   Wind: 9mph
Humidity: 99%   Direction: 30°NNE
Pressure: 30.17"   Gusts: NA
Location:  40.66°N, 90.43°W
Report Text: KMQB 270135Z AUTO 03008KT 4SM -SN BKN005 OVC013 M02/M02 A3017 RMK AO2 T10181020
Loading
Personal Weather Stations






























Interactive Weather Map New forecast layout! Learn more

10-Day Weather Forecast

Advertisements
Track Severe Weather on mobile